createdAt,value
2022-10-28T00:01:17.428Z,98525.28
2022-10-28T00:03:48.262Z,98524.56
2022-10-28T00:06:25.106Z,98523.72
2022-10-28T00:08:52.026Z,98530.78
2022-10-28T00:11:26.206Z,98521.28
2022-10-28T00:13:55.541Z,98528.38
2022-10-28T00:16:27.652Z,98536.31
2022-10-28T00:18:54.886Z,98539.94
2022-10-28T00:21:27.870Z,98532.09
2022-10-28T00:23:55.071Z,98539.19
2022-10-28T00:26:25.767Z,98531.50
2022-10-28T00:28:59.392Z,98537.53
2022-10-28T00:31:29.677Z,98533.47
2022-10-28T00:33:58.925Z,98533.47
2022-10-28T00:36:29.086Z,98543.16
2022-10-28T00:38:56.872Z,98526.81
2022-10-28T00:41:37.322Z,98526.06
2022-10-28T00:44:43.320Z,98534.91
2022-10-28T00:47:37.430Z,98530.66
2022-10-28T00:50:27.782Z,98529.72
2022-10-28T00:53:02.791Z,98527.22
2022-10-28T00:55:31.525Z,98526.38
2022-10-28T00:58:00.865Z,98523.03
2022-10-28T01:00:27.863Z,98528.25
2022-10-28T01:02:55.393Z,98532.63
2022-10-28T01:05:28.718Z,98533.56
2022-10-28T01:08:00.566Z,98529.31
2022-10-28T01:11:07.364Z,98530.25
2022-10-28T01:13:52.449Z,98535.34
2022-10-28T01:17:10.432Z,98531.19
2022-10-28T01:20:10.086Z,98537.22
2022-10-28T01:22:57.137Z,98546.78
2022-10-28T01:26:19.732Z,98518.44
2022-10-28T01:29:04.338Z,98529.91
2022-10-28T01:32:00.854Z,98534.38
2022-10-28T01:35:19.470Z,98529.16
2022-10-28T01:38:01.781Z,98529.38
2022-10-28T01:40:40.718Z,98526.97
2022-10-28T01:43:37.140Z,98524.56
2022-10-28T01:46:24.853Z,98529.78
2022-10-28T01:48:59.071Z,98526.44
2022-10-28T01:51:35.535Z,98524.88
2022-10-28T01:54:07.722Z,98529.25
2022-10-28T01:56:41.417Z,98518.84
2022-10-28T01:59:17.574Z,98524.97
2022-10-28T02:01:44.589Z,98515.50
2022-10-28T02:04:11.452Z,98519.06
2022-10-28T02:06:41.346Z,98512.97
2022-10-28T02:09:40.234Z,98508.53
2022-10-28T02:12:32.495Z,98501.56
2022-10-28T02:15:33.762Z,98500.72
2022-10-28T02:18:30.154Z,98502.50
2022-10-28T02:21:10.323Z,98498.03
2022-10-28T02:24:00.284Z,98494.59
2022-10-28T02:26:37.143Z,98502.28
2022-10-28T02:29:23.645Z,98494.47
2022-10-28T02:31:57.534Z,98482.19
2022-10-28T02:34:32.306Z,98481.47
2022-10-28T02:37:05.063Z,98481.56
2022-10-28T02:39:40.276Z,98486.69
2022-10-28T02:42:28.421Z,98485.75
2022-10-28T02:45:06.235Z,98491.66
2022-10-28T02:47:37.359Z,98484.47
2022-10-28T02:50:12.969Z,98497.41
2022-10-28T02:52:44.291Z,98489.59
2022-10-28T02:55:14.370Z,98487.75
2022-10-28T02:57:44.822Z,98495.44
2022-10-28T03:00:18.448Z,98500.53
2022-10-28T03:02:46.123Z,98497.00
2022-10-28T03:05:14.182Z,98504.72
2022-10-28T03:07:41.679Z,98497.72
2022-10-28T03:10:09.457Z,98493.34
2022-10-28T03:12:36.222Z,98491.59
2022-10-28T03:15:03.711Z,98495.13
2022-10-28T03:17:30.890Z,98493.34
2022-10-28T03:19:57.679Z,98484.59
2022-10-28T03:22:24.390Z,98495.84
2022-10-28T03:24:51.139Z,98498.44
2022-10-28T03:27:17.856Z,98495.97
2022-10-28T03:29:45.986Z,98503.88
2022-10-28T03:32:13.747Z,98502.09
2022-10-28T03:34:40.597Z,98491.78
2022-10-28T03:37:07.404Z,98492.00
2022-10-28T03:39:34.130Z,98490.41
2022-10-28T03:42:00.964Z,98483.66
2022-10-28T03:44:27.744Z,98490.72
2022-10-28T03:46:54.473Z,98500.41
2022-10-28T03:49:21.253Z,98491.06
2022-10-28T03:51:48.040Z,98489.38
2022-10-28T03:54:14.888Z,98482.63
2022-10-28T03:56:41.679Z,98481.88
2022-10-28T03:59:10.043Z,98485.28
2022-10-28T04:01:36.900Z,98484.66
2022-10-28T04:04:04.137Z,98491.75
2022-10-28T04:06:30.847Z,98482.38
2022-10-28T04:08:57.784Z,98485.09
2022-10-28T04:11:24.507Z,98488.63
2022-10-28T04:13:51.370Z,98480.06
2022-10-28T04:16:18.105Z,98482.78
2022-10-28T04:18:44.798Z,98484.44
2022-10-28T04:21:11.591Z,98483.59
2022-10-28T04:23:38.304Z,98479.34
2022-10-28T04:26:05.378Z,98481.94
2022-10-28T04:28:32.838Z,98485.47
2022-10-28T04:30:59.719Z,98473.41
2022-10-28T04:33:26.447Z,98484.66
2022-10-28T04:35:53.125Z,98481.94
2022-10-28T04:38:19.959Z,98481.00
2022-10-28T04:40:50.248Z,98492.16
2022-10-28T04:43:16.938Z,98477.47
2022-10-28T04:45:47.306Z,98492.91
2022-10-28T04:48:14.290Z,98488.53
2022-10-28T04:50:41.675Z,98496.34
2022-10-28T04:53:08.416Z,98489.38
2022-10-28T04:55:35.147Z,98499.75
2022-10-28T04:58:02.203Z,98504.03
2022-10-28T05:00:30.520Z,98505.69
2022-10-28T05:03:01.516Z,98500.28
2022-10-28T05:05:28.236Z,98492.38
2022-10-28T05:07:55.388Z,98498.22
2022-10-28T05:10:22.713Z,98493.75
2022-10-28T05:12:49.475Z,98483.25
2022-10-28T05:15:16.353Z,98488.34
2022-10-28T05:17:47.301Z,98488.44
2022-10-28T05:20:17.402Z,98500.63
2022-10-28T05:22:53.896Z,98510.19
2022-10-28T05:25:22.344Z,98513.63
2022-10-28T05:27:49.364Z,98523.22
2022-10-28T05:30:16.457Z,98528.31
2022-10-28T05:32:43.183Z,98524.88
2022-10-28T05:35:10.819Z,98521.34
2022-10-28T05:37:37.769Z,98517.91
2022-10-28T05:40:05.555Z,98507.50
2022-10-28T05:42:32.705Z,98508.22
2022-10-28T05:44:59.423Z,98505.50
2022-10-28T05:47:26.106Z,98501.88
2022-10-28T05:49:52.804Z,98500.75
2022-10-28T05:52:19.604Z,98497.00
2022-10-28T05:54:46.327Z,98507.94
2022-10-28T05:57:13.082Z,98517.22
2022-10-28T05:59:39.863Z,98522.22
2022-10-28T06:02:06.669Z,98522.94
2022-10-28T06:04:33.443Z,98522.09
2022-10-28T06:07:00.188Z,98522.84
2022-10-28T06:09:28.962Z,98532.22
2022-10-28T06:11:54.156Z,98532.94
2022-10-28T06:14:20.975Z,98537.03
2022-10-28T06:16:47.758Z,98538.69
2022-10-28T06:19:14.443Z,98540.97
2022-10-28T06:21:41.565Z,98545.13
2022-10-28T06:24:12.127Z,98549.22
2022-10-28T06:26:39.473Z,98537.88
2022-10-28T06:29:11.418Z,98555.69
2022-10-28T06:31:41.452Z,98550.38
2022-10-28T06:34:11.807Z,98555.41
2022-10-28T06:36:38.758Z,98554.38
2022-10-28T06:39:05.854Z,98554.97
2022-10-28T06:41:33.350Z,98553.09
2022-10-28T06:44:00.399Z,98555.59
2022-10-28T06:46:27.624Z,98558.97
2022-10-28T06:48:56.770Z,98556.03
2022-10-28T06:51:24.347Z,98560.28
2022-10-28T06:53:52.119Z,98571.34
2022-10-28T06:56:19.440Z,98573.72
2022-10-28T06:58:53.419Z,98577.94
2022-10-28T07:01:22.085Z,98571.66
2022-10-28T07:03:49.043Z,98572.88
2022-10-28T07:06:16.844Z,98577.91
2022-10-28T07:08:43.573Z,98596.44
2022-10-28T07:11:10.290Z,98594.38
2022-10-28T07:13:37.008Z,98593.94
2022-10-28T07:16:05.137Z,98604.91
2022-10-28T07:18:32.052Z,98608.84
2022-10-28T07:21:00.735Z,98613.53
2022-10-28T07:23:28.471Z,98615.72
2022-10-28T07:25:56.848Z,98621.25
2022-10-28T07:28:25.269Z,98617.34
2022-10-28T07:30:52.563Z,98600.53
2022-10-28T07:33:19.927Z,98593.84
2022-10-28T07:35:46.685Z,98581.09
2022-10-28T07:38:13.401Z,98562.97
2022-10-28T07:40:40.325Z,98510.25
2022-10-28T07:43:07.052Z,98447.53
2022-10-28T07:45:35.905Z,98447.69
2022-10-28T07:48:03.651Z,98460.78
2022-10-28T07:50:30.665Z,98489.28
2022-10-28T07:52:57.469Z,98524.09
2022-10-28T07:55:26.046Z,98539.94
2022-10-28T07:57:53.129Z,98549.00
2022-10-28T08:00:20.205Z,98568.22
2022-10-28T08:02:46.913Z,98564.78
2022-10-28T08:05:13.674Z,98537.59
2022-10-28T08:07:40.375Z,98536.28
2022-10-28T08:10:07.924Z,98551.09
2022-10-28T08:12:34.753Z,98541.66
2022-10-28T08:15:02.572Z,98561.50
2022-10-28T08:17:29.461Z,98550.53
2022-10-28T08:19:56.208Z,98548.69
2022-10-28T08:22:23.342Z,98551.34
2022-10-28T08:24:50.491Z,98547.56
2022-10-28T08:27:17.236Z,98536.66
2022-10-28T08:29:43.942Z,98537.91
2022-10-28T08:32:10.687Z,98540.41
2022-10-28T08:34:40.770Z,98548.03
2022-10-28T08:37:10.377Z,98551.22
2022-10-28T08:39:37.203Z,98543.56
2022-10-28T08:42:35.400Z,98545.25
2022-10-28T08:45:29.945Z,98543.03
2022-10-28T08:48:15.384Z,98536.56
2022-10-28T08:50:59.289Z,98538.47
2022-10-28T08:53:39.158Z,98532.66
2022-10-28T08:56:14.858Z,98531.84
2022-10-28T08:58:44.988Z,98541.53
2022-10-28T09:01:35.232Z,98538.19
2022-10-28T09:04:13.208Z,98532.13
2022-10-28T09:06:39.973Z,98529.78
2022-10-28T09:09:06.771Z,98533.50
2022-10-28T09:11:50.541Z,98530.69
2022-10-28T09:14:56.077Z,98536.41
2022-10-28T09:17:48.577Z,98518.91
2022-10-28T09:20:43.867Z,98520.88
2022-10-28T09:23:27.076Z,98517.34
2022-10-28T09:26:29.010Z,98519.31
2022-10-28T09:29:43.272Z,98516.56
2022-10-28T09:32:54.268Z,98526.13
2022-10-28T09:35:28.043Z,98512.44
2022-10-28T09:38:26.586Z,98512.44
2022-10-28T09:41:03.637Z,98505.47
2022-10-28T09:43:35.217Z,98508.50
2022-10-28T09:46:18.995Z,98507.75
2022-10-28T09:48:55.610Z,98501.19
2022-10-28T09:51:43.269Z,98504.72
2022-10-28T09:54:12.721Z,98494.19
2022-10-28T09:56:40.732Z,98506.59
2022-10-28T09:59:13.209Z,98501.50
2022-10-28T10:01:42.666Z,98504.09
2022-10-28T10:04:23.076Z,98498.13
2022-10-28T10:07:11.773Z,98499.44
2022-10-28T10:09:39.634Z,98497.88
2022-10-28T10:12:11.876Z,98497.22
2022-10-28T10:14:56.395Z,98496.19
2022-10-28T10:17:32.342Z,98503.41
2022-10-28T10:20:00.468Z,98507.22
2022-10-28T10:22:32.541Z,98495.56
2022-10-28T10:24:59.376Z,98492.84
2022-10-28T10:27:28.785Z,98499.28
2022-10-28T10:29:57.902Z,98493.97
2022-10-28T10:32:32.380Z,98496.44
2022-10-28T10:35:26.075Z,98494.75
2022-10-28T10:37:56.731Z,98501.19
2022-10-28T10:40:34.501Z,98501.78
2022-10-28T10:43:29.800Z,98499.22
2022-10-28T10:46:03.737Z,98496.63
2022-10-28T10:48:38.115Z,98496.34
2022-10-28T10:51:27.549Z,98506.31
2022-10-28T10:54:01.680Z,98495.09
2022-10-28T10:56:33.431Z,98491.88
2022-10-28T10:59:05.559Z,98491.34
2022-10-28T11:01:39.929Z,98486.19
2022-10-28T11:04:15.152Z,98490.22
2022-10-28T11:06:49.141Z,98480.75
2022-10-28T11:09:39.623Z,98459.06
2022-10-28T11:12:36.808Z,98455.13
2022-10-28T11:15:21.445Z,98447.78
2022-10-28T11:18:11.360Z,98437.09
2022-10-28T11:21:00.855Z,98426.09
2022-10-28T11:23:45.981Z,98415.94
2022-10-28T11:26:17.031Z,98413.38
2022-10-28T11:29:09.839Z,98420.81
2022-10-28T11:32:10.639Z,98429.03
2022-10-28T11:35:07.867Z,98418.50
2022-10-28T11:38:10.129Z,98410.91
2022-10-28T11:41:06.990Z,98420.06
2022-10-28T11:43:55.815Z,98418.41
2022-10-28T11:46:58.426Z,98411.22
2022-10-28T11:50:01.424Z,98396.81
2022-10-28T11:53:24.442Z,98399.44
2022-10-28T11:56:26.231Z,98393.97
2022-10-28T11:59:30.718Z,98405.66
2022-10-28T12:02:58.470Z,98393.94
2022-10-28T12:06:12.016Z,98393.06
2022-10-28T12:12:09.930Z,98381.72
2022-10-28T12:15:16.418Z,98387.94
2022-10-28T12:18:07.016Z,98387.75
2022-10-28T12:20:49.619Z,98371.72
2022-10-28T12:23:23.339Z,98377.63
2022-10-28T12:26:02.545Z,98371.63
2022-10-28T12:29:00.726Z,98365.06
2022-10-28T12:31:39.701Z,98363.84
2022-10-28T12:34:20.113Z,98366.44
2022-10-28T12:37:23.320Z,98363.41
2022-10-28T12:40:32.779Z,98373.59
2022-10-28T12:43:24.101Z,98375.06
2022-10-28T12:45:56.148Z,98368.16
2022-10-28T12:48:35.511Z,98365.34
2022-10-28T12:51:26.973Z,98361.75
2022-10-28T12:54:07.913Z,98366.50
2022-10-28T12:57:14.546Z,98354.59
2022-10-28T13:00:04.190Z,98355.63
2022-10-28T13:03:12.439Z,98345.81
2022-10-28T13:05:49.726Z,98342.94
2022-10-28T13:08:35.159Z,98337.38
2022-10-28T13:11:19.853Z,98329.19
2022-10-28T13:13:58.159Z,98326.66
2022-10-28T13:16:42.814Z,98327.53
2022-10-28T13:19:16.792Z,98331.22
2022-10-28T13:22:47.453Z,98324.22
2022-10-28T13:25:38.298Z,98324.38
2022-10-28T13:28:05.646Z,98334.53
2022-10-28T13:30:32.418Z,98330.72
2022-10-28T13:33:08.353Z,98326.44
2022-10-28T13:35:37.021Z,98324.97
2022-10-28T13:38:12.619Z,98330.00
2022-10-28T13:40:39.224Z,98333.59
2022-10-28T13:43:41.063Z,98326.94
2022-10-28T13:46:07.797Z,98335.94
2022-10-28T13:48:43.151Z,98327.47
2022-10-28T13:51:09.780Z,98325.28
2022-10-28T13:53:56.788Z,98334.44
2022-10-28T13:56:27.952Z,98330.84
2022-10-28T13:59:30.511Z,98336.81
2022-10-28T14:02:28.397Z,98344.09
2022-10-28T14:05:16.446Z,98350.28
2022-10-28T14:08:00.460Z,98350.28
2022-10-28T14:10:33.685Z,98346.06
2022-10-28T14:13:06.219Z,98335.53
2022-10-28T14:15:39.120Z,98330.09
2022-10-28T14:18:37.283Z,98323.31
2022-10-28T14:21:01.597Z,98333.09
2022-10-28T14:23:28.561Z,98333.56
2022-10-28T14:25:55.941Z,98331.00
2022-10-28T14:28:31.030Z,98332.50
2022-10-28T14:31:12.581Z,98331.47
2022-10-28T14:34:12.067Z,98325.75
2022-10-28T14:36:50.279Z,98325.94
2022-10-28T14:39:39.911Z,98326.19
2022-10-28T14:43:01.737Z,98324.19
2022-10-28T14:45:49.298Z,98322.50
2022-10-28T14:49:02.910Z,98326.97
2022-10-28T14:51:44.313Z,98326.56
2022-10-28T14:54:50.801Z,98320.97
2022-10-28T14:57:22.673Z,98314.88
2022-10-28T14:59:51.549Z,98318.75
2022-10-28T15:02:24.061Z,98312.56
2022-10-28T15:05:11.871Z,98310.03
2022-10-28T15:07:41.023Z,98312.06
2022-10-28T15:10:21.871Z,98302.25
2022-10-28T15:12:50.072Z,98307.75
2022-10-28T15:15:21.452Z,98301.34
2022-10-28T15:17:49.343Z,98304.53
2022-10-28T15:20:33.603Z,98302.41
2022-10-28T15:23:23.242Z,98308.03
2022-10-28T15:26:14.377Z,98321.88
2022-10-28T15:28:42.804Z,98324.84
2022-10-28T15:31:09.751Z,98325.94
2022-10-28T15:33:42.150Z,98329.22
2022-10-28T15:36:18.641Z,98328.50
2022-10-28T15:38:49.623Z,98322.97
2022-10-28T15:41:41.861Z,98323.19
2022-10-28T15:44:26.025Z,98324.94
2022-10-28T15:46:54.602Z,98318.59
2022-10-28T15:49:40.314Z,98326.25
2022-10-28T15:52:22.830Z,98329.13
2022-10-28T15:55:19.314Z,98349.44
2022-10-28T15:57:59.395Z,98339.00
2022-10-28T16:00:32.401Z,98336.59
2022-10-28T16:03:48.368Z,98346.41
2022-10-28T16:06:31.597Z,98352.41
2022-10-28T16:09:24.356Z,98336.84
2022-10-28T16:11:58.542Z,98339.25
2022-10-28T16:14:39.072Z,98343.31
2022-10-28T16:17:12.650Z,98343.91
2022-10-28T16:19:46.500Z,98345.03
2022-10-28T16:22:14.442Z,98350.59
2022-10-28T16:24:42.225Z,98348.09
2022-10-28T16:27:23.704Z,98348.94
2022-10-28T16:29:50.949Z,98342.69
2022-10-28T16:32:27.008Z,98352.22
2022-10-28T16:34:53.782Z,98342.41
2022-10-28T16:37:27.935Z,98343.91
2022-10-28T16:39:55.766Z,98346.91
2022-10-28T16:42:22.781Z,98355.88
2022-10-28T16:44:50.128Z,98349.34
2022-10-28T16:47:20.416Z,98343.75
2022-10-28T16:49:54.370Z,98353.97
2022-10-28T16:52:29.746Z,98346.63
2022-10-28T16:54:57.842Z,98357.84
2022-10-28T16:57:25.108Z,98351.75
2022-10-28T16:59:52.091Z,98351.75
2022-10-28T17:02:30.598Z,98359.34
2022-10-28T17:04:58.967Z,98352.09
2022-10-28T17:07:28.981Z,98361.66
2022-10-28T17:09:56.673Z,98354.59
2022-10-28T17:12:26.867Z,98356.53
2022-10-28T17:14:53.941Z,98361.97
2022-10-28T17:17:20.733Z,98359.34
2022-10-28T17:19:47.664Z,98360.31
2022-10-28T17:22:14.379Z,98358.66
2022-10-28T17:24:41.145Z,98360.47
2022-10-28T17:27:08.518Z,98353.41
2022-10-28T17:29:35.595Z,98356.03
2022-10-28T17:32:02.407Z,98355.34
2022-10-28T17:34:29.375Z,98349.41
2022-10-28T17:36:56.244Z,98352.06
2022-10-28T17:39:26.229Z,98348.72
2022-10-28T17:41:53.600Z,98350.41
2022-10-28T17:44:20.499Z,98345.97
2022-10-28T17:46:51.348Z,98345.97
2022-10-28T17:49:18.844Z,98340.81
2022-10-28T17:51:45.661Z,98338.34
2022-10-28T17:54:12.451Z,98334.88
2022-10-28T17:56:41.764Z,98337.00
2022-10-28T17:59:09.273Z,98338.50
2022-10-28T18:01:36.882Z,98337.66
2022-10-28T18:04:05.345Z,98340.44
2022-10-28T18:06:32.144Z,98343.09
2022-10-28T18:08:58.875Z,98340.75
2022-10-28T18:11:27.252Z,98336.47
2022-10-28T18:13:55.819Z,98341.19
2022-10-28T18:16:29.764Z,98347.59
2022-10-28T18:18:56.517Z,98335.56
2022-10-28T18:21:24.491Z,98353.00
2022-10-28T18:23:52.916Z,98347.06
2022-10-28T18:26:20.528Z,98347.22
2022-10-28T18:28:48.798Z,98353.63
2022-10-28T18:31:19.245Z,98350.59
2022-10-28T18:33:47.209Z,98347.88
2022-10-28T18:36:23.383Z,98351.59
2022-10-28T18:38:51.541Z,98348.44
2022-10-28T18:41:22.366Z,98348.44
2022-10-28T18:43:57.699Z,98345.94
2022-10-28T18:46:28.525Z,98349.84
2022-10-28T18:48:58.271Z,98354.00
2022-10-28T18:51:25.380Z,98362.72
2022-10-28T18:53:52.448Z,98357.75
2022-10-28T18:56:23.623Z,98364.00
2022-10-28T18:58:52.174Z,98368.69
2022-10-28T19:01:23.502Z,98354.34
2022-10-28T19:03:59.899Z,98360.19
2022-10-28T19:06:32.429Z,98356.34
2022-10-28T19:09:03.765Z,98357.75
2022-10-28T19:11:32.678Z,98369.16
2022-10-28T19:14:02.740Z,98353.25
2022-10-28T19:16:33.105Z,98351.50
2022-10-28T19:19:02.063Z,98359.28
2022-10-28T19:21:29.459Z,98361.78
2022-10-28T19:23:56.377Z,98356.28
2022-10-28T19:26:23.893Z,98354.09
2022-10-28T19:28:51.935Z,98352.13
2022-10-28T19:31:25.350Z,98353.41
2022-10-28T19:33:54.186Z,98362.81
2022-10-28T19:36:27.692Z,98368.50
2022-10-28T19:38:56.870Z,98369.84
2022-10-28T19:41:26.973Z,98364.59
2022-10-28T19:44:03.747Z,98366.56
2022-10-28T19:46:35.814Z,98372.91
2022-10-28T19:49:05.647Z,98369.59
2022-10-28T19:51:40.841Z,98372.63
2022-10-28T19:54:13.088Z,98371.81
2022-10-28T19:56:40.171Z,98379.00
2022-10-28T19:59:07.235Z,98372.91
2022-10-28T20:01:37.960Z,98369.47
2022-10-28T20:04:05.194Z,98371.25
2022-10-28T20:06:36.688Z,98370.97
2022-10-28T20:09:05.040Z,98369.91
2022-10-28T20:11:35.325Z,98374.72
2022-10-28T20:14:08.177Z,98368.06
2022-10-28T20:16:39.601Z,98373.59
2022-10-28T20:19:06.408Z,98373.44
2022-10-28T20:21:34.371Z,98375.66
2022-10-28T20:24:06.813Z,98380.75
2022-10-28T20:26:36.064Z,98380.50
2022-10-28T20:29:03.769Z,98375.25
2022-10-28T20:31:32.726Z,98381.31
2022-10-28T20:34:03.668Z,98388.25
2022-10-28T20:36:33.080Z,98385.75
2022-10-28T20:39:04.394Z,98391.97
2022-10-28T20:41:34.411Z,98397.50
2022-10-28T20:44:02.589Z,98394.47
2022-10-28T20:46:29.748Z,98387.03
2022-10-28T20:48:57.102Z,98392.69
2022-10-28T20:51:27.125Z,98383.84
2022-10-28T20:53:54.460Z,98385.22
2022-10-28T20:56:30.584Z,98387.59
2022-10-28T20:58:58.347Z,98384.69
2022-10-28T21:01:31.243Z,98389.53
2022-10-28T21:04:03.028Z,98384.66
2022-10-28T21:06:30.669Z,98386.06
2022-10-28T21:08:58.391Z,98385.78
2022-10-28T21:11:27.788Z,98386.19
2022-10-28T21:13:57.924Z,98383.31
2022-10-28T21:16:26.663Z,98383.13
2022-10-28T21:18:53.730Z,98377.56
2022-10-28T21:21:23.067Z,98387.50
2022-10-28T21:23:50.092Z,98388.19
2022-10-28T21:26:17.254Z,98393.97
2022-10-28T21:28:45.171Z,98389.50
2022-10-28T21:31:15.309Z,98389.25
2022-10-28T21:33:43.151Z,98386.44
2022-10-28T21:36:16.278Z,98395.00
2022-10-28T21:38:43.384Z,98397.28
2022-10-28T21:41:18.722Z,98393.69
2022-10-28T21:43:48.741Z,98389.09
2022-10-28T21:46:16.882Z,98396.63
2022-10-28T21:48:43.865Z,98391.09
2022-10-28T21:51:15.195Z,98397.72
2022-10-28T21:53:44.295Z,98384.16
2022-10-28T21:56:18.828Z,98395.41
2022-10-28T21:58:48.396Z,98388.88
2022-10-28T22:01:22.559Z,98389.25
2022-10-28T22:03:51.272Z,98406.31
2022-10-28T22:06:17.985Z,98398.59
2022-10-28T22:08:44.853Z,98410.41
2022-10-28T22:11:18.506Z,98417.66
2022-10-28T22:13:46.027Z,98414.50
2022-10-28T22:16:16.775Z,98419.84
2022-10-28T22:18:44.916Z,98428.66
2022-10-28T22:21:18.720Z,98423.69
2022-10-28T22:23:45.819Z,98434.28
2022-10-28T22:26:19.945Z,98435.34
2022-10-28T22:28:47.550Z,98428.47
2022-10-28T22:31:18.557Z,98433.00
2022-10-28T22:36:16.395Z,98443.16
2022-10-28T22:38:43.932Z,98448.75
2022-10-28T22:41:30.553Z,98444.72
2022-10-28T22:44:00.370Z,98440.00
2022-10-28T22:46:30.730Z,98439.41
2022-10-28T22:48:57.941Z,98441.44
2022-10-28T22:51:24.974Z,98436.34
2022-10-28T22:53:51.716Z,98436.34
2022-10-28T22:56:22.523Z,98442.53
2022-10-28T22:58:58.112Z,98435.84
2022-10-28T23:01:26.500Z,98438.84
2022-10-28T23:03:54.732Z,98440.06
2022-10-28T23:06:25.267Z,98440.19
2022-10-28T23:08:52.612Z,98430.91
2022-10-28T23:11:21.638Z,98435.44
2022-10-28T23:13:53.457Z,98439.13
2022-10-28T23:16:21.148Z,98437.72
2022-10-28T23:18:48.699Z,98437.03
2022-10-28T23:21:23.352Z,98431.88
2022-10-28T23:23:59.035Z,98437.25
2022-10-28T23:26:28.487Z,98448.66
2022-10-28T23:28:58.679Z,98454.97
2022-10-28T23:31:26.827Z,98448.91
2022-10-28T23:33:54.870Z,98457.59
2022-10-28T23:36:22.254Z,98449.88
2022-10-28T23:38:48.967Z,98449.16
2022-10-28T23:41:18.709Z,98448.47
2022-10-28T23:43:47.071Z,98454.72
2022-10-28T23:46:13.986Z,98452.22
2022-10-28T23:48:40.694Z,98459.09
2022-10-28T23:51:07.471Z,98460.19
2022-10-28T23:53:34.649Z,98448.31
2022-10-28T23:56:01.439Z,98457.22
2022-10-28T23:58:28.184Z,98445.34
